Hlavní strana
METAR-TAF:

METAR-TAF

Letiště :

Letiště Odense

Odense, Dánsko

zeměpisná šířka: 55-29N, zeměpisná délka: 010-20E, výška: 17 m

Aktuální stav počasí

Zpráva byla vytvořena před 59 minutami, v 12:50 UTC
Jihozápadní vítr 4 kt, proměnlivý mezi jižním a severozápadním
Teplota 17°C
Vlhkost vzduchu 34%
Tlak 1030 hPa
Viditelnost 10 km a více
Žádná oblačnost pod 1500 m, nevyskytují se cumulonimby.

METAR: EKOD 181250Z 23004KT 170V320 CAVOK 17/01 Q1030

Čas: 15:49 (13:49 UTC)

Předpověď počasí

Zpráva byla vytvořena před 1 hodinou a 56 minutami, v 11:53 UTC
Předpověď platná od 18 v 12 UTC do 18 v 17 UTC
Jihozápadní vítr 8 kt
Viditelnost 10 km a více
Žádná oblačnost pod 1500 m, nevyskytují se cumulonimby.

TAF: EKOD 181153Z 1812/1817 22008KT CAVOK

Stav a předpovědi počasí z více než 4 000 letišť (zprávy METAR a TAF).

Červené a žluté tečky na mapě představují dostupné meteorologické stanice.

Když kurzor umístíte na tečku, zobrazí se název stanice.

Pak kliknutím zobrazíte stav a předpověď počasí.

Chcete-li změnit mapu, kliknutím na zelené tlačítko se znaménkem +mapu přiblížíte, kliknutím na zelené tlačítko se znaménkem – mapu oddálíte a kliknutím na zelené šipky přejdete na sousední mapy.


METAR-TAF: